Cadmus, Michigan
Current Conditions -  °F | °C
As of 12:53 PM on Sunday 25 Jan 2015 (Local Time) from KADG Reporting Station
Light Snow Light Snow  
Wind Chill: 11°   Ceiling: 1400
Heat Index: 24°   Visibility: 2mi
Dew Point: 20°   Wind: 16mph
Humidity: 84%   Direction: 80°E
Pressure: 29.86"   Gusts: 23mph
Location:  41.9076°N, 84.0644°W
Report Text: KADG 251753Z AUTO 08014G20KT 2SM -SN BR BKN014 BKN018 OVC032 M04/M07 A2986 RMK AO2 SLP122 P0000 60000 I6000 T10441067 10011 21044 50003
Loading
Personal Weather Stations






























Interactive Weather Map New forecast layout! Learn more

10-Day Weather Forecast

Advertisements
Track Severe Weather on mobile